This is the latest recevied weather packets stored in our database for station/object W4KAB. If no packets are shown the sender has not sent any weather packets the latest 10 day(s).
| Time | Temp. | Humidity | Pressure | Rain* | Wind** | Luminosity | Snow |
|---|---|---|---|---|---|---|---|
| 1777055026 | 18.89° C | 86% | 1013.2 hPa | 0 mm | - | 43 W/m² | - |
| 1777054722 | 18.89° C | 83% | 1013.3 hPa | 0 mm | - | 46 W/m² | - |
| 1777054419 | 19.44° C | 80% | 1013.2 hPa | 0 mm | - | 46 W/m² | - |
| 1777054118 | 20° C | 71% | 1013.8 hPa | 1.78 mm | - | 37 W/m² | - |
| 1777053813 | 20.56° C | 67% | 1013.6 hPa | 1.78 mm | - | 33 W/m² | - |
| 1777053513 | 22.22° C | 57% | 1013.6 hPa | 0 mm | - | 28 W/m² | - |
| 1777053209 | 22.78° C | 50% | 1013.6 hPa | 0 mm | - | 21 W/m² | - |
| 1777052905 | 23.33° C | 50% | 1013.6 hPa | 0 mm | - | 30 W/m² | - |
| 1777052601 | 23.89° C | 47% | 1013.5 hPa | 0 mm | - | 45 W/m² | - |
| 1777052296 | 24.44° C | 45% | 1013.6 hPa | 0 mm | - | 27 W/m² | - |
| 1777051993 | 26.11° C | 40% | 1013.5 hPa | 0 mm | - | 19 W/m² | - |
| 1777051690 | 26.67° C | 39% | 1013.1 hPa | 0 mm | - | 29 W/m² | - |
| 1777051386 | 26.67° C | 40% | 1013.3 hPa | 0 mm | - | 543 W/m² | - |
| 1777051082 | 26.67° C | 39% | 1013.2 hPa | 0 mm | - | 178 W/m² | - |
| 1777050777 | 26.67° C | 41% | 1013.4 hPa | 0 mm | - | 216 W/m² | - |
| 1777050473 | 26.11° C | 42% | 1013.4 hPa | 0 mm | - | 141 W/m² | - |
| 1777050168 | 26.67° C | 39% | 1013.5 hPa | 0 mm | - | 96 W/m² | - |
| 1777049862 | 27.22° C | 40% | 1013.8 hPa | 0 mm | - | 91 W/m² | - |
| 1777049558 | 27.78° C | 38% | 1013.8 hPa | 0 mm | - | 167 W/m² | - |
| 1777049256 | 27.78° C | 37% | 1013.9 hPa | 0 mm | - | 473 W/m² | - |
| 1777048953 | 27.78° C | 36% | 1013.6 hPa | 0 mm | - | 406 W/m² | - |
* Rain latest hour (hover to see other rain measurements)
** Current wind speed in m/s (hover to see current wind gust speed)